ESPAEFRO

Guest
Details From ESPA - Lulea Kallax
To EFRO - Rovaniemi
Flight Number -
Tags decoded
Created
Modified
Stats Distance 115 nm / 212 km
Max Altitude 0 ft / 0 m
Waypoints 3
Social Downloads 0
Likes 0
Share VATSIM

Download

Looking for another format? Having issues loading an existing format? Contact us
Advertisement - Login to hide

Notes

Requested: ESPA N0438F370 BESL3B BESLA M607 NEMGU NEMG1C EFRO Unmatched points: N0438F370 BESL3B M607 NEMGU NEMG1C

Route

ESPA BESLA EFRO

ID Type Via Altitude Latitude Longitude Leg Dist Tot Dist Heading (true) Name
O ESPA APT - 0 ft / 0 m 65.54376˚ 22.12198˚ - 0 nm - Lulea Kallax
BESLA FIX - 0 ft / 0 m 65.85753˚ 22.31025˚ 19 nm 19 nm 14° / 14° -
O EFRO APT - 0 ft / 0 m 66.56482˚ 25.83042˚ 95 nm 114 nm 62° / 65° Rovaniemi

Altitude Profile

Advertisement - Login to hide

ESPA

Details ICAO ESPA (LLA)
Name Lulea Kallax
Region Sweden
Timezone Europe/Stockholm (UTC+1.0)
Stats Elevation 65 ft / 20 m (AMSL)
Location 65.543757° 22.121979°
Runways 1
Magnetic Variation 9.327° E

METAR

ESPA 181820Z 34004KT 9999 BKN004 M13/M14 Q1013

Decode

TAF

Not found

Departure Runways

ID Width Length Bearing (true) Bearing (mag) Surface Threshold Offset Overrun Length
14 148 ft / 45 m 10,957 ft / 3,340 m 137.32° 127.99° Asphalt 0 ft / 0 m 0 ft / 0 m
32 148 ft / 45 m 10,957 ft / 3,340 m 317.36° 308.03° Asphalt 0 ft / 0 m 0 ft / 0 m

EFRO

Details ICAO EFRO (RVN)
Name Rovaniemi
Region Finland
Timezone Europe/Helsinki (UTC+2.0)
Stats Elevation 632 ft / 193 m (AMSL)
Location 66.564822° 25.830420°
Runways 1
Magnetic Variation 11.495° E

METAR

EFRO 181820Z AUTO 05004KT 0400 FZFG NCD M16/M18 Q1012

Decode

TAF

TAF EFRO 181738Z 1818/1918 VRB02KT 0300 FZFG VV001 TEMPO 1818/1902 5000 BR SCT002 TEMPO 1902/1912 0800 VV002 TEMPO 1912/1915 8000 BKN005 BECMG 1915/1918 19010KT 2000 SN BKN008

Decode

Destination Runways

ID Width Length Bearing (true) Bearing (mag) Surface Threshold Offset Overrun Length
03 197 ft / 60 m 9,819 ft / 2,993 m 37.14° 25.65° Asphalt 0 ft / 0 m 235 ft / 72 m
21 197 ft / 60 m 9,819 ft / 2,993 m 217.18° 205.69° Asphalt 0 ft / 0 m 218 ft / 66 m

Approach Navaids

Runway Type Ident Frequency Range Bearing (true) Bearing (mag) Slope Elevation
21 Localiser RO 111.70 MHz 18 nm / 33 km 217.13° 205.64° - 632 ft / 193 m (AMSL)
21 Glidescope RO 111.70 MHz 10 nm / 19 km 217.16° 205.67° 3.00° 632 ft / 193 m (AMSL)
21 DME RO 111.70 MHz 18 nm / 33 km - - - 673 ft / 205 m (AMSL)